sensor_id;sensor_type;location;lat;lon;timestamp;P1;durP1;ratioP1;P2;durP2;ratioP2
12687;SDS011;6408;59.388;17.798;2023-08-08T00:01:24;3.17;;;1.30;;
12687;SDS011;6408;59.388;17.798;2023-08-08T00:04:05;1.95;;;0.80;;
12687;SDS011;6408;59.388;17.798;2023-08-08T00:06:34;2.28;;;1.30;;
12687;SDS011;6408;59.388;17.798;2023-08-08T00:09:03;1.92;;;0.82;;
12687;SDS011;6408;59.388;17.798;2023-08-08T00:11:50;1.85;;;1.08;;
12687;SDS011;6408;59.388;17.798;2023-08-08T00:14:23;3.03;;;0.98;;
12687;SDS011;6408;59.388;17.798;2023-08-08T00:16:52;3.90;;;1.10;;
12687;SDS011;6408;59.388;17.798;2023-08-08T00:19:26;1.15;;;0.90;;
12687;SDS011;6408;59.388;17.798;2023-08-08T00:21:54;4.05;;;0.90;;
12687;SDS011;6408;59.388;17.798;2023-08-08T00:24:25;4.38;;;1.05;;
12687;SDS011;6408;59.388;17.798;2023-08-08T00:26:57;3.70;;;1.00;;
12687;SDS011;6408;59.388;17.798;2023-08-08T00:29:24;0.90;;;0.70;;
12687;SDS011;6408;59.388;17.798;2023-08-08T00:31:56;2.35;;;0.77;;
12687;SDS011;6408;59.388;17.798;2023-08-08T00:34:31;3.17;;;1.48;;
12687;SDS011;6408;59.388;17.798;2023-08-08T00:37:00;5.18;;;1.30;;
12687;SDS011;6408;59.388;17.798;2023-08-08T00:39:28;2.55;;;1.10;;
12687;SDS011;6408;59.388;17.798;2023-08-08T00:42:15;3.85;;;1.15;;
12687;SDS011;6408;59.388;17.798;2023-08-08T00:44:46;1.63;;;0.85;;
12687;SDS011;6408;59.388;17.798;2023-08-08T00:47:15;2.30;;;1.00;;
12687;SDS011;6408;59.388;17.798;2023-08-08T00:49:49;3.28;;;1.00;;
12687;SDS011;6408;59.388;17.798;2023-08-08T00:52:21;0.90;;;0.50;;
12687;SDS011;6408;59.388;17.798;2023-08-08T00:54:53;1.90;;;0.88;;
12687;SDS011;6408;59.388;17.798;2023-08-08T00:57:21;2.15;;;1.20;;
12687;SDS011;6408;59.388;17.798;2023-08-08T00:59:52;1.75;;;0.85;;
12687;SDS011;6408;59.388;17.798;2023-08-08T01:02:23;4.15;;;0.85;;
12687;SDS011;6408;59.388;17.798;2023-08-08T01:04:57;4.15;;;1.00;;
12687;SDS011;6408;59.388;17.798;2023-08-08T01:07:33;3.25;;;1.05;;
12687;SDS011;6408;59.388;17.798;2023-08-08T01:10:10;3.80;;;1.60;;
12687;SDS011;6408;59.388;17.798;2023-08-08T01:12:45;3.47;;;1.13;;
12687;SDS011;6408;59.388;17.798;2023-08-08T01:15:19;3.85;;;1.10;;
12687;SDS011;6408;59.388;17.798;2023-08-08T01:17:49;3.45;;;1.27;;
12687;SDS011;6408;59.388;17.798;2023-08-08T01:20:28;3.85;;;0.90;;
12687;SDS011;6408;59.388;17.798;2023-08-08T01:23:09;1.90;;;1.05;;
12687;SDS011;6408;59.388;17.798;2023-08-08T01:25:53;2.03;;;0.98;;
12687;SDS011;6408;59.388;17.798;2023-08-08T01:28:22;1.70;;;0.77;;
12687;SDS011;6408;59.388;17.798;2023-08-08T01:30:56;1.35;;;0.80;;
12687;SDS011;6408;59.388;17.798;2023-08-08T01:33:25;3.40;;;1.10;;
12687;SDS011;6408;59.388;17.798;2023-08-08T01:36:02;2.90;;;1.00;;
12687;SDS011;6408;59.388;17.798;2023-08-08T01:38:36;1.98;;;0.95;;
12687;SDS011;6408;59.388;17.798;2023-08-08T01:41:14;3.55;;;0.95;;
12687;SDS011;6408;59.388;17.798;2023-08-08T01:43:47;3.03;;;1.00;;
12687;SDS011;6408;59.388;17.798;2023-08-08T01:46:22;3.67;;;1.00;;
12687;SDS011;6408;59.388;17.798;2023-08-08T01:48:51;3.67;;;1.20;;
12687;SDS011;6408;59.388;17.798;2023-08-08T01:51:24;3.38;;;0.90;;
12687;SDS011;6408;59.388;17.798;2023-08-08T01:53:57;3.35;;;1.30;;
12687;SDS011;6408;59.388;17.798;2023-08-08T01:56:34;1.80;;;1.00;;
12687;SDS011;6408;59.388;17.798;2023-08-08T01:59:04;3.28;;;1.13;;
12687;SDS011;6408;59.388;17.798;2023-08-08T02:01:50;1.52;;;0.90;;
12687;SDS011;6408;59.388;17.798;2023-08-08T02:04:22;4.38;;;1.08;;
12687;SDS011;6408;59.388;17.798;2023-08-08T02:06:55;2.40;;;1.25;;
12687;SDS011;6408;59.388;17.798;2023-08-08T02:09:25;2.42;;;0.88;;
12687;SDS011;6408;59.388;17.798;2023-08-08T02:11:58;1.77;;;1.10;;
12687;SDS011;6408;59.388;17.798;2023-08-08T02:14:45;2.42;;;0.90;;
12687;SDS011;6408;59.388;17.798;2023-08-08T02:17:14;4.88;;;0.98;;
12687;SDS011;6408;59.388;17.798;2023-08-08T02:19:44;1.95;;;0.90;;
12687;SDS011;6408;59.388;17.798;2023-08-08T02:22:13;2.00;;;1.05;;
12687;SDS011;6408;59.388;17.798;2023-08-08T02:24:43;4.05;;;1.00;;
12687;SDS011;6408;59.388;17.798;2023-08-08T02:27:17;4.25;;;1.10;;
12687;SDS011;6408;59.388;17.798;2023-08-08T02:29:50;2.72;;;1.00;;
12687;SDS011;6408;59.388;17.798;2023-08-08T02:32:19;4.55;;;1.40;;
12687;SDS011;6408;59.388;17.798;2023-08-08T02:34:49;3.90;;;1.20;;
12687;SDS011;6408;59.388;17.798;2023-08-08T02:37:19;3.03;;;0.95;;
12687;SDS011;6408;59.388;17.798;2023-08-08T02:39:58;2.05;;;0.88;;
12687;SDS011;6408;59.388;17.798;2023-08-08T02:42:32;1.58;;;0.98;;
12687;SDS011;6408;59.388;17.798;2023-08-08T02:45:07;2.38;;;1.00;;
12687;SDS011;6408;59.388;17.798;2023-08-08T02:47:43;3.40;;;0.93;;
12687;SDS011;6408;59.388;17.798;2023-08-08T02:50:15;2.10;;;0.95;;
12687;SDS011;6408;59.388;17.798;2023-08-08T02:52:44;5.18;;;1.13;;
12687;SDS011;6408;59.388;17.798;2023-08-08T02:55:13;3.28;;;0.90;;
12687;SDS011;6408;59.388;17.798;2023-08-08T02:57:47;4.50;;;1.50;;
12687;SDS011;6408;59.388;17.798;2023-08-08T03:00:24;2.42;;;1.25;;
12687;SDS011;6408;59.388;17.798;2023-08-08T03:02:54;4.57;;;1.45;;
12687;SDS011;6408;59.388;17.798;2023-08-08T03:05:25;3.17;;;1.00;;
12687;SDS011;6408;59.388;17.798;2023-08-08T03:07:54;2.80;;;1.00;;
12687;SDS011;6408;59.388;17.798;2023-08-08T03:10:21;4.53;;;1.20;;
12687;SDS011;6408;59.388;17.798;2023-08-08T03:12:52;5.22;;;1.10;;
12687;SDS011;6408;59.388;17.798;2023-08-08T03:15:24;3.92;;;1.20;;
12687;SDS011;6408;59.388;17.798;2023-08-08T03:18:04;3.83;;;1.00;;
12687;SDS011;6408;59.388;17.798;2023-08-08T03:20:32;3.40;;;1.20;;
12687;SDS011;6408;59.388;17.798;2023-08-08T03:23:00;3.38;;;1.10;;
12687;SDS011;6408;59.388;17.798;2023-08-08T03:25:29;3.13;;;1.25;;
12687;SDS011;6408;59.388;17.798;2023-08-08T03:28:01;5.57;;;1.00;;
12687;SDS011;6408;59.388;17.798;2023-08-08T03:30:44;1.45;;;0.93;;
12687;SDS011;6408;59.388;17.798;2023-08-08T03:33:17;2.65;;;1.50;;
12687;SDS011;6408;59.388;17.798;2023-08-08T03:35:45;3.92;;;1.30;;
12687;SDS011;6408;59.388;17.798;2023-08-08T03:38:16;2.78;;;1.20;;
12687;SDS011;6408;59.388;17.798;2023-08-08T03:40:48;1.75;;;1.00;;
12687;SDS011;6408;59.388;17.798;2023-08-08T03:43:22;3.47;;;1.00;;
12687;SDS011;6408;59.388;17.798;2023-08-08T03:45:52;4.15;;;1.38;;
12687;SDS011;6408;59.388;17.798;2023-08-08T03:48:25;2.10;;;1.02;;
12687;SDS011;6408;59.388;17.798;2023-08-08T03:50:54;3.33;;;0.93;;
12687;SDS011;6408;59.388;17.798;2023-08-08T03:53:24;2.75;;;0.90;;
12687;SDS011;6408;59.388;17.798;2023-08-08T03:55:54;4.75;;;1.17;;
12687;SDS011;6408;59.388;17.798;2023-08-08T03:58:27;1.00;;;0.88;;
12687;SDS011;6408;59.388;17.798;2023-08-08T04:00:57;3.92;;;1.00;;
12687;SDS011;6408;59.388;17.798;2023-08-08T04:03:25;1.90;;;1.20;;
12687;SDS011;6408;59.388;17.798;2023-08-08T04:05:57;4.35;;;1.23;;
12687;SDS011;6408;59.388;17.798;2023-08-08T04:08:26;1.80;;;0.80;;
12687;SDS011;6408;59.388;17.798;2023-08-08T04:10:56;2.35;;;0.77;;
12687;SDS011;6408;59.388;17.798;2023-08-08T04:13:26;1.60;;;1.00;;
12687;SDS011;6408;59.388;17.798;2023-08-08T04:15:56;2.05;;;1.08;;
12687;SDS011;6408;59.388;17.798;2023-08-08T04:18:27;1.95;;;0.88;;
12687;SDS011;6408;59.388;17.798;2023-08-08T04:20:56;1.38;;;0.90;;
12687;SDS011;6408;59.388;17.798;2023-08-08T04:23:30;1.75;;;0.98;;
12687;SDS011;6408;59.388;17.798;2023-08-08T04:25:58;1.17;;;0.73;;
12687;SDS011;6408;59.388;17.798;2023-08-08T04:28:33;1.00;;;0.90;;
12687;SDS011;6408;59.388;17.798;2023-08-08T04:31:04;1.60;;;1.13;;
12687;SDS011;6408;59.388;17.798;2023-08-08T04:33:33;1.02;;;0.80;;
12687;SDS011;6408;59.388;17.798;2023-08-08T04:36:01;2.70;;;1.00;;
12687;SDS011;6408;59.388;17.798;2023-08-08T04:38:43;2.40;;;0.90;;
12687;SDS011;6408;59.388;17.798;2023-08-08T04:41:15;1.02;;;0.93;;
12687;SDS011;6408;59.388;17.798;2023-08-08T04:43:49;2.17;;;1.25;;
12687;SDS011;6408;59.388;17.798;2023-08-08T04:46:17;1.60;;;0.85;;
12687;SDS011;6408;59.388;17.798;2023-08-08T04:48:48;2.05;;;0.98;;
12687;SDS011;6408;59.388;17.798;2023-08-08T04:51:15;1.48;;;0.77;;
12687;SDS011;6408;59.388;17.798;2023-08-08T04:53:45;1.67;;;0.93;;
12687;SDS011;6408;59.388;17.798;2023-08-08T04:56:17;0.93;;;0.80;;
12687;SDS011;6408;59.388;17.798;2023-08-08T04:58:51;1.70;;;1.05;;
12687;SDS011;6408;59.388;17.798;2023-08-08T05:01:18;0.70;;;0.70;;
12687;SDS011;6408;59.388;17.798;2023-08-08T05:03:47;1.30;;;0.80;;
12687;SDS011;6408;59.388;17.798;2023-08-08T05:06:18;1.73;;;0.93;;
12687;SDS011;6408;59.388;17.798;2023-08-08T05:08:58;1.65;;;0.77;;
12687;SDS011;6408;59.388;17.798;2023-08-08T05:11:29;0.68;;;0.63;;
12687;SDS011;6408;59.388;17.798;2023-08-08T05:14:00;0.93;;;0.60;;
12687;SDS011;6408;59.388;17.798;2023-08-08T05:16:33;0.90;;;0.50;;
12687;SDS011;6408;59.388;17.798;2023-08-08T05:19:07;0.98;;;0.70;;
12687;SDS011;6408;59.388;17.798;2023-08-08T05:21:34;0.47;;;0.47;;
12687;SDS011;6408;59.388;17.798;2023-08-08T05:24:04;1.00;;;0.70;;
12687;SDS011;6408;59.388;17.798;2023-08-08T05:26:37;0.65;;;0.60;;
12687;SDS011;6408;59.388;17.798;2023-08-08T05:29:16;1.23;;;0.60;;
12687;SDS011;6408;59.388;17.798;2023-08-08T05:31:46;1.00;;;0.47;;
12687;SDS011;6408;59.388;17.798;2023-08-08T05:34:27;0.88;;;0.63;;
12687;SDS011;6408;59.388;17.798;2023-08-08T05:37:06;1.38;;;0.70;;
12687;SDS011;6408;59.388;17.798;2023-08-08T05:39:44;1.00;;;0.57;;
12687;SDS011;6408;59.388;17.798;2023-08-08T05:42:23;0.55;;;0.55;;
12687;SDS011;6408;59.388;17.798;2023-08-08T05:44:54;1.50;;;0.60;;
12687;SDS011;6408;59.388;17.798;2023-08-08T05:47:29;1.00;;;0.80;;
12687;SDS011;6408;59.388;17.798;2023-08-08T05:49:56;1.70;;;0.80;;
12687;SDS011;6408;59.388;17.798;2023-08-08T05:52:25;1.40;;;0.77;;
12687;SDS011;6408;59.388;17.798;2023-08-08T05:55:07;0.63;;;0.63;;
12687;SDS011;6408;59.388;17.798;2023-08-08T05:57:37;1.33;;;0.73;;
12687;SDS011;6408;59.388;17.798;2023-08-08T06:03:06;0.65;;;0.47;;
12687;SDS011;6408;59.388;17.798;2023-08-08T06:05:39;0.98;;;0.60;;
12687;SDS011;6408;59.388;17.798;2023-08-08T06:08:13;1.52;;;0.65;;
12687;SDS011;6408;59.388;17.798;2023-08-08T06:10:44;0.63;;;0.60;;
12687;SDS011;6408;59.388;17.798;2023-08-08T06:13:20;1.23;;;0.65;;
12687;SDS011;6408;59.388;17.798;2023-08-08T06:16:04;0.65;;;0.63;;
12687;SDS011;6408;59.388;17.798;2023-08-08T06:18:48;0.45;;;0.45;;
12687;SDS011;6408;59.388;17.798;2023-08-08T06:21:20;0.93;;;0.50;;
12687;SDS011;6408;59.388;17.798;2023-08-08T06:23:48;0.77;;;0.70;;
12687;SDS011;6408;59.388;17.798;2023-08-08T06:26:20;0.60;;;0.57;;
12687;SDS011;6408;59.388;17.798;2023-08-08T06:28:56;1.00;;;0.50;;
12687;SDS011;6408;59.388;17.798;2023-08-08T06:31:24;2.10;;;0.50;;
12687;SDS011;6408;59.388;17.798;2023-08-08T06:33:54;1.73;;;0.70;;
12687;SDS011;6408;59.388;17.798;2023-08-08T06:36:25;1.48;;;0.80;;
12687;SDS011;6408;59.388;17.798;2023-08-08T06:39:04;1.35;;;0.55;;
12687;SDS011;6408;59.388;17.798;2023-08-08T06:41:36;1.13;;;0.50;;
12687;SDS011;6408;59.388;17.798;2023-08-08T06:44:07;1.05;;;0.95;;
12687;SDS011;6408;59.388;17.798;2023-08-08T06:46:38;0.77;;;0.77;;
12687;SDS011;6408;59.388;17.798;2023-08-08T06:49:12;1.77;;;0.40;;
12687;SDS011;6408;59.388;17.798;2023-08-08T06:51:46;0.50;;;0.50;;
12687;SDS011;6408;59.388;17.798;2023-08-08T06:54:17;0.57;;;0.57;;
12687;SDS011;6408;59.388;17.798;2023-08-08T06:56:57;1.95;;;0.73;;
12687;SDS011;6408;59.388;17.798;2023-08-08T06:59:25;1.95;;;0.75;;
12687;SDS011;6408;59.388;17.798;2023-08-08T07:02:01;0.75;;;0.70;;
12687;SDS011;6408;59.388;17.798;2023-08-08T07:04:37;1.65;;;0.80;;
12687;SDS011;6408;59.388;17.798;2023-08-08T07:07:05;0.88;;;0.73;;
12687;SDS011;6408;59.388;17.798;2023-08-08T07:09:56;1.30;;;0.60;;
12687;SDS011;6408;59.388;17.798;2023-08-08T07:12:28;1.83;;;0.80;;
12687;SDS011;6408;59.388;17.798;2023-08-08T07:14:55;0.82;;;0.80;;
12687;SDS011;6408;59.388;17.798;2023-08-08T07:17:57;0.68;;;0.50;;
12687;SDS011;6408;59.388;17.798;2023-08-08T07:20:35;0.70;;;0.70;;
12687;SDS011;6408;59.388;17.798;2023-08-08T07:23:08;0.98;;;0.60;;
12687;SDS011;6408;59.388;17.798;2023-08-08T07:25:45;0.73;;;0.70;;
12687;SDS011;6408;59.388;17.798;2023-08-08T07:28:13;0.50;;;0.50;;
12687;SDS011;6408;59.388;17.798;2023-08-08T07:30:54;0.90;;;0.77;;
12687;SDS011;6408;59.388;17.798;2023-08-08T07:33:44;1.50;;;0.88;;
12687;SDS011;6408;59.388;17.798;2023-08-08T07:39:58;1.08;;;1.00;;
12687;SDS011;6408;59.388;17.798;2023-08-08T07:42:28;1.33;;;0.70;;
12687;SDS011;6408;59.388;17.798;2023-08-08T07:45:08;1.90;;;0.80;;
12687;SDS011;6408;59.388;17.798;2023-08-08T07:51:18;1.50;;;0.80;;
12687;SDS011;6408;59.388;17.798;2023-08-08T07:54:15;0.88;;;0.88;;
12687;SDS011;6408;59.388;17.798;2023-08-08T07:56:50;0.82;;;0.70;;
12687;SDS011;6408;59.388;17.798;2023-08-08T07:59:33;0.95;;;0.90;;
12687;SDS011;6408;59.388;17.798;2023-08-08T08:02:05;0.90;;;0.90;;
12687;SDS011;6408;59.388;17.798;2023-08-08T08:04:46;0.88;;;0.88;;
12687;SDS011;6408;59.388;17.798;2023-08-08T08:07:17;0.95;;;0.90;;
12687;SDS011;6408;59.388;17.798;2023-08-08T08:09:45;2.83;;;0.93;;
12687;SDS011;6408;59.388;17.798;2023-08-08T08:12:18;0.80;;;0.80;;
12687;SDS011;6408;59.388;17.798;2023-08-08T08:14:50;1.55;;;1.00;;
12687;SDS011;6408;59.388;17.798;2023-08-08T08:17:18;0.93;;;0.85;;
12687;SDS011;6408;59.388;17.798;2023-08-08T08:19:48;0.70;;;0.70;;
12687;SDS011;6408;59.388;17.798;2023-08-08T08:22:19;0.85;;;0.70;;
12687;SDS011;6408;59.388;17.798;2023-08-08T08:24:47;0.95;;;0.85;;
12687;SDS011;6408;59.388;17.798;2023-08-08T08:27:15;0.82;;;0.82;;
12687;SDS011;6408;59.388;17.798;2023-08-08T08:29:45;0.98;;;0.88;;
12687;SDS011;6408;59.388;17.798;2023-08-08T08:32:13;1.45;;;0.90;;
12687;SDS011;6408;59.388;17.798;2023-08-08T08:34:41;2.17;;;1.00;;
12687;SDS011;6408;59.388;17.798;2023-08-08T08:37:09;2.22;;;0.90;;
12687;SDS011;6408;59.388;17.798;2023-08-08T08:39:37;1.08;;;0.90;;
12687;SDS011;6408;59.388;17.798;2023-08-08T08:42:04;1.15;;;0.95;;
12687;SDS011;6408;59.388;17.798;2023-08-08T08:44:33;2.65;;;1.17;;
12687;SDS011;6408;59.388;17.798;2023-08-08T08:47:05;1.38;;;1.05;;
12687;SDS011;6408;59.388;17.798;2023-08-08T08:49:37;1.20;;;1.10;;
12687;SDS011;6408;59.388;17.798;2023-08-08T08:52:10;2.92;;;0.98;;
12687;SDS011;6408;59.388;17.798;2023-08-08T08:54:48;1.50;;;1.10;;
12687;SDS011;6408;59.388;17.798;2023-08-08T08:57:20;1.15;;;1.05;;
12687;SDS011;6408;59.388;17.798;2023-08-08T09:00:01;1.48;;;1.10;;
12687;SDS011;6408;59.388;17.798;2023-08-08T09:02:33;1.08;;;0.90;;
12687;SDS011;6408;59.388;17.798;2023-08-08T09:05:04;0.80;;;0.70;;
12687;SDS011;6408;59.388;17.798;2023-08-08T09:07:32;1.23;;;1.00;;
12687;SDS011;6408;59.388;17.798;2023-08-08T09:10:03;0.63;;;0.63;;
12687;SDS011;6408;59.388;17.798;2023-08-08T09:12:37;0.70;;;0.65;;
12687;SDS011;6408;59.388;17.798;2023-08-08T09:15:04;0.80;;;0.80;;
12687;SDS011;6408;59.388;17.798;2023-08-08T09:17:33;0.50;;;0.50;;
12687;SDS011;6408;59.388;17.798;2023-08-08T09:20:06;0.28;;;0.28;;
12687;SDS011;6408;59.388;17.798;2023-08-08T09:22:38;0.90;;;0.50;;
12687;SDS011;6408;59.388;17.798;2023-08-08T09:25:07;0.85;;;0.30;;
12687;SDS011;6408;59.388;17.798;2023-08-08T09:27:43;0.40;;;0.40;;
12687;SDS011;6408;59.388;17.798;2023-08-08T09:30:22;0.52;;;0.52;;
12687;SDS011;6408;59.388;17.798;2023-08-08T09:32:51;0.85;;;0.68;;
12687;SDS011;6408;59.388;17.798;2023-08-08T09:35:22;1.25;;;0.55;;
12687;SDS011;6408;59.388;17.798;2023-08-08T09:37:52;0.68;;;0.68;;
12687;SDS011;6408;59.388;17.798;2023-08-08T09:40:21;0.80;;;0.80;;
12687;SDS011;6408;59.388;17.798;2023-08-08T09:42:52;0.50;;;0.50;;
12687;SDS011;6408;59.388;17.798;2023-08-08T09:45:20;0.70;;;0.70;;
12687;SDS011;6408;59.388;17.798;2023-08-08T09:50:37;0.77;;;0.77;;
12687;SDS011;6408;59.388;17.798;2023-08-08T09:53:11;0.80;;;0.80;;
12687;SDS011;6408;59.388;17.798;2023-08-08T09:55:41;1.10;;;1.00;;
12687;SDS011;6408;59.388;17.798;2023-08-08T09:58:09;1.13;;;1.02;;
12687;SDS011;6408;59.388;17.798;2023-08-08T10:00:39;1.38;;;1.15;;
12687;SDS011;6408;59.388;17.798;2023-08-08T10:03:12;1.83;;;1.20;;
12687;SDS011;6408;59.388;17.798;2023-08-08T10:05:42;1.15;;;1.10;;
12687;SDS011;6408;59.388;17.798;2023-08-08T10:08:12;1.40;;;1.13;;
12687;SDS011;6408;59.388;17.798;2023-08-08T10:10:43;1.10;;;1.10;;
12687;SDS011;6408;59.388;17.798;2023-08-08T10:13:18;2.33;;;1.38;;
12687;SDS011;6408;59.388;17.798;2023-08-08T10:15:48;2.72;;;1.38;;
12687;SDS011;6408;59.388;17.798;2023-08-08T10:18:20;3.88;;;1.65;;
12687;SDS011;6408;59.388;17.798;2023-08-08T10:20:49;1.13;;;1.02;;
12687;SDS011;6408;59.388;17.798;2023-08-08T10:23:18;1.65;;;1.45;;
12687;SDS011;6408;59.388;17.798;2023-08-08T10:25:47;1.58;;;1.25;;
12687;SDS011;6408;59.388;17.798;2023-08-08T10:28:18;1.17;;;1.08;;
12687;SDS011;6408;59.388;17.798;2023-08-08T10:30:51;2.28;;;1.20;;
12687;SDS011;6408;59.388;17.798;2023-08-08T10:33:22;7.18;;;1.23;;
12687;SDS011;6408;59.388;17.798;2023-08-08T10:36:01;0.80;;;0.80;;
12687;SDS011;6408;59.388;17.798;2023-08-08T10:38:41;0.82;;;0.80;;
12687;SDS011;6408;59.388;17.798;2023-08-08T10:41:13;0.98;;;0.88;;
12687;SDS011;6408;59.388;17.798;2023-08-08T10:43:49;1.85;;;0.90;;
12687;SDS011;6408;59.388;17.798;2023-08-08T10:46:23;1.67;;;0.75;;
12687;SDS011;6408;59.388;17.798;2023-08-08T10:48:53;0.95;;;0.80;;
12687;SDS011;6408;59.388;17.798;2023-08-08T10:51:31;1.23;;;0.70;;
12687;SDS011;6408;59.388;17.798;2023-08-08T10:54:03;0.88;;;0.77;;
12687;SDS011;6408;59.388;17.798;2023-08-08T10:56:34;0.70;;;0.70;;
12687;SDS011;6408;59.388;17.798;2023-08-08T10:59:16;0.60;;;0.60;;
12687;SDS011;6408;59.388;17.798;2023-08-08T11:01:46;1.17;;;0.90;;
12687;SDS011;6408;59.388;17.798;2023-08-08T11:04:16;0.45;;;0.45;;
12687;SDS011;6408;59.388;17.798;2023-08-08T11:06:47;1.10;;;1.00;;
12687;SDS011;6408;59.388;17.798;2023-08-08T11:09:16;0.77;;;0.75;;
12687;SDS011;6408;59.388;17.798;2023-08-08T11:11:45;0.68;;;0.68;;
12687;SDS011;6408;59.388;17.798;2023-08-08T11:14:16;0.93;;;0.80;;
12687;SDS011;6408;59.388;17.798;2023-08-08T11:16:55;0.52;;;0.52;;
12687;SDS011;6408;59.388;17.798;2023-08-08T11:19:33;1.20;;;0.75;;
12687;SDS011;6408;59.388;17.798;2023-08-08T11:22:10;2.13;;;0.90;;
12687;SDS011;6408;59.388;17.798;2023-08-08T11:24:44;1.55;;;0.80;;
12687;SDS011;6408;59.388;17.798;2023-08-08T11:27:12;1.02;;;0.90;;
12687;SDS011;6408;59.388;17.798;2023-08-08T11:29:49;3.42;;;0.90;;
12687;SDS011;6408;59.388;17.798;2023-08-08T11:32:17;3.55;;;0.63;;
12687;SDS011;6408;59.388;17.798;2023-08-08T11:35:08;1.15;;;0.75;;
12687;SDS011;6408;59.388;17.798;2023-08-08T11:37:46;2.20;;;0.95;;
12687;SDS011;6408;59.388;17.798;2023-08-08T11:40:18;1.38;;;0.73;;
12687;SDS011;6408;59.388;17.798;2023-08-08T11:42:49;1.35;;;1.05;;
12687;SDS011;6408;59.388;17.798;2023-08-08T11:45:19;2.22;;;0.80;;
12687;SDS011;6408;59.388;17.798;2023-08-08T11:47:54;2.05;;;0.98;;
12687;SDS011;6408;59.388;17.798;2023-08-08T11:50:24;1.13;;;0.85;;
12687;SDS011;6408;59.388;17.798;2023-08-08T11:52:54;0.82;;;0.80;;
12687;SDS011;6408;59.388;17.798;2023-08-08T11:55:26;1.98;;;0.65;;
12687;SDS011;6408;59.388;17.798;2023-08-08T11:57:59;1.42;;;0.95;;
12687;SDS011;6408;59.388;17.798;2023-08-08T12:00:36;1.05;;;0.75;;
12687;SDS011;6408;59.388;17.798;2023-08-08T12:03:05;1.58;;;0.93;;
12687;SDS011;6408;59.388;17.798;2023-08-08T12:05:37;0.60;;;0.60;;
12687;SDS011;6408;59.388;17.798;2023-08-08T12:08:06;0.65;;;0.65;;
12687;SDS011;6408;59.388;17.798;2023-08-08T12:10:37;0.63;;;0.57;;
12687;SDS011;6408;59.388;17.798;2023-08-08T12:13:05;1.13;;;0.65;;
12687;SDS011;6408;59.388;17.798;2023-08-08T12:15:35;1.20;;;0.80;;
12687;SDS011;6408;59.388;17.798;2023-08-08T12:18:15;1.15;;;0.75;;
12687;SDS011;6408;59.388;17.798;2023-08-08T12:20:50;1.52;;;0.90;;
12687;SDS011;6408;59.388;17.798;2023-08-08T12:23:22;1.88;;;0.63;;
12687;SDS011;6408;59.388;17.798;2023-08-08T12:25:53;2.47;;;0.65;;
12687;SDS011;6408;59.388;17.798;2023-08-08T12:28:24;0.90;;;0.85;;
12687;SDS011;6408;59.388;17.798;2023-08-08T12:30:54;3.28;;;0.82;;
12687;SDS011;6408;59.388;17.798;2023-08-08T12:33:22;1.55;;;0.80;;
12687;SDS011;6408;59.388;17.798;2023-08-08T12:35:56;3.50;;;0.98;;
12687;SDS011;6408;59.388;17.798;2023-08-08T12:38:28;1.52;;;0.80;;
12687;SDS011;6408;59.388;17.798;2023-08-08T12:40:57;1.75;;;0.90;;
12687;SDS011;6408;59.388;17.798;2023-08-08T12:43:31;1.48;;;0.88;;
12687;SDS011;6408;59.388;17.798;2023-08-08T12:45:59;3.90;;;0.98;;
12687;SDS011;6408;59.388;17.798;2023-08-08T12:48:32;1.58;;;0.75;;
12687;SDS011;6408;59.388;17.798;2023-08-08T12:51:12;1.30;;;0.80;;
12687;SDS011;6408;59.388;17.798;2023-08-08T12:54:07;0.65;;;0.65;;
12687;SDS011;6408;59.388;17.798;2023-08-08T12:56:37;1.35;;;0.65;;
12687;SDS011;6408;59.388;17.798;2023-08-08T12:59:12;1.30;;;0.70;;
12687;SDS011;6408;59.388;17.798;2023-08-08T13:01:48;1.42;;;0.80;;
12687;SDS011;6408;59.388;17.798;2023-08-08T13:04:17;1.75;;;0.90;;
12687;SDS011;6408;59.388;17.798;2023-08-08T13:06:48;1.83;;;0.70;;
12687;SDS011;6408;59.388;17.798;2023-08-08T13:09:16;1.23;;;0.90;;
12687;SDS011;6408;59.388;17.798;2023-08-08T13:11:49;2.38;;;0.88;;
12687;SDS011;6408;59.388;17.798;2023-08-08T13:14:19;2.30;;;0.95;;
12687;SDS011;6408;59.388;17.798;2023-08-08T13:16:48;0.82;;;0.80;;
12687;SDS011;6408;59.388;17.798;2023-08-08T13:19:17;0.90;;;0.73;;
12687;SDS011;6408;59.388;17.798;2023-08-08T13:21:53;1.60;;;1.00;;
12687;SDS011;6408;59.388;17.798;2023-08-08T13:24:24;1.20;;;0.82;;
12687;SDS011;6408;59.388;17.798;2023-08-08T13:26:57;2.35;;;0.80;;
12687;SDS011;6408;59.388;17.798;2023-08-08T13:29:29;1.40;;;0.80;;
12687;SDS011;6408;59.388;17.798;2023-08-08T13:32:02;1.20;;;0.80;;
12687;SDS011;6408;59.388;17.798;2023-08-08T13:34:30;1.75;;;1.10;;
12687;SDS011;6408;59.388;17.798;2023-08-08T13:37:12;1.83;;;1.00;;
12687;SDS011;6408;59.388;17.798;2023-08-08T13:39:40;3.10;;;1.20;;
12687;SDS011;6408;59.388;17.798;2023-08-08T13:42:11;2.20;;;1.05;;
12687;SDS011;6408;59.388;17.798;2023-08-08T13:44:52;4.03;;;1.17;;
12687;SDS011;6408;59.388;17.798;2023-08-08T13:47:19;1.08;;;0.80;;
12687;SDS011;6408;59.388;17.798;2023-08-08T13:49:47;1.20;;;1.10;;
12687;SDS011;6408;59.388;17.798;2023-08-08T13:52:22;3.15;;;1.00;;
12687;SDS011;6408;59.388;17.798;2023-08-08T13:54:51;1.58;;;0.75;;
12687;SDS011;6408;59.388;17.798;2023-08-08T13:57:22;0.75;;;0.63;;
12687;SDS011;6408;59.388;17.798;2023-08-08T13:59:51;1.52;;;0.90;;
12687;SDS011;6408;59.388;17.798;2023-08-08T14:02:26;2.22;;;0.80;;
12687;SDS011;6408;59.388;17.798;2023-08-08T14:04:55;2.72;;;0.88;;
12687;SDS011;6408;59.388;17.798;2023-08-08T14:07:28;2.20;;;0.65;;
12687;SDS011;6408;59.388;17.798;2023-08-08T14:09:58;1.65;;;0.80;;
12687;SDS011;6408;59.388;17.798;2023-08-08T14:12:36;3.72;;;0.68;;
12687;SDS011;6408;59.388;17.798;2023-08-08T14:15:11;0.65;;;0.60;;
12687;SDS011;6408;59.388;17.798;2023-08-08T14:17:39;3.03;;;0.70;;
12687;SDS011;6408;59.388;17.798;2023-08-08T14:20:11;0.70;;;0.57;;
12687;SDS011;6408;59.388;17.798;2023-08-08T14:22:45;1.85;;;0.80;;
12687;SDS011;6408;59.388;17.798;2023-08-08T14:25:17;1.65;;;0.68;;
12687;SDS011;6408;59.388;17.798;2023-08-08T14:27:45;1.02;;;0.60;;
12687;SDS011;6408;59.388;17.798;2023-08-08T14:30:14;1.27;;;0.70;;
12687;SDS011;6408;59.388;17.798;2023-08-08T14:32:47;1.05;;;0.60;;
12687;SDS011;6408;59.388;17.798;2023-08-08T14:35:16;1.25;;;0.80;;
12687;SDS011;6408;59.388;17.798;2023-08-08T14:37:46;1.73;;;0.70;;
12687;SDS011;6408;59.388;17.798;2023-08-08T14:40:13;1.13;;;0.70;;
12687;SDS011;6408;59.388;17.798;2023-08-08T14:42:41;2.67;;;0.80;;
12687;SDS011;6408;59.388;17.798;2023-08-08T14:45:10;3.05;;;0.90;;
12687;SDS011;6408;59.388;17.798;2023-08-08T14:47:39;3.88;;;0.90;;
12687;SDS011;6408;59.388;17.798;2023-08-08T14:50:11;1.83;;;0.70;;
12687;SDS011;6408;59.388;17.798;2023-08-08T14:52:40;3.55;;;1.00;;
12687;SDS011;6408;59.388;17.798;2023-08-08T14:55:21;5.32;;;0.90;;
12687;SDS011;6408;59.388;17.798;2023-08-08T14:57:51;1.98;;;0.80;;
12687;SDS011;6408;59.388;17.798;2023-08-08T15:00:27;1.77;;;0.70;;
12687;SDS011;6408;59.388;17.798;2023-08-08T15:02:58;2.38;;;1.02;;
12687;SDS011;6408;59.388;17.798;2023-08-08T15:05:33;2.70;;;1.10;;
12687;SDS011;6408;59.388;17.798;2023-08-08T15:08:09;4.65;;;1.20;;
12687;SDS011;6408;59.388;17.798;2023-08-08T15:10:38;2.80;;;0.98;;
12687;SDS011;6408;59.388;17.798;2023-08-08T15:13:05;1.52;;;0.80;;
12687;SDS011;6408;59.388;17.798;2023-08-08T15:15:33;3.15;;;1.00;;
12687;SDS011;6408;59.388;17.798;2023-08-08T15:18:02;3.47;;;1.02;;
12687;SDS011;6408;59.388;17.798;2023-08-08T15:20:34;2.45;;;1.02;;
12687;SDS011;6408;59.388;17.798;2023-08-08T15:23:10;2.65;;;0.98;;
12687;SDS011;6408;59.388;17.798;2023-08-08T15:25:41;2.92;;;0.90;;
12687;SDS011;6408;59.388;17.798;2023-08-08T15:28:11;2.53;;;0.82;;
12687;SDS011;6408;59.388;17.798;2023-08-08T15:30:38;3.42;;;0.82;;
12687;SDS011;6408;59.388;17.798;2023-08-08T15:33:06;1.75;;;0.88;;